sensor_id;sensor_type;location;lat;lon;timestamp;P1;durP1;ratioP1;P2;durP2;ratioP2
49123;SDS011;48506;48.202;16.274;2023-03-03T00:00:40;26.90;;;14.20;;
49123;SDS011;48506;48.202;16.274;2023-03-03T00:03:07;29.90;;;14.85;;
49123;SDS011;48506;48.202;16.274;2023-03-03T00:05:37;27.15;;;13.65;;
49123;SDS011;48506;48.202;16.274;2023-03-03T00:08:04;31.88;;;14.65;;
49123;SDS011;48506;48.202;16.274;2023-03-03T00:10:30;29.20;;;15.73;;
49123;SDS011;48506;48.202;16.274;2023-03-03T00:12:56;32.30;;;14.70;;
49123;SDS011;48506;48.202;16.274;2023-03-03T00:15:23;27.48;;;14.38;;
49123;SDS011;48506;48.202;16.274;2023-03-03T00:17:50;29.42;;;14.23;;
49123;SDS011;48506;48.202;16.274;2023-03-03T00:25:59;27.97;;;16.43;;
49123;SDS011;48506;48.202;16.274;2023-03-03T00:28:57;28.15;;;13.68;;
49123;SDS011;48506;48.202;16.274;2023-03-03T00:31:18;26.60;;;13.38;;
49123;SDS011;48506;48.202;16.274;2023-03-03T00:33:47;33.08;;;16.00;;
49123;SDS011;48506;48.202;16.274;2023-03-03T00:36:35;25.65;;;13.80;;
49123;SDS011;48506;48.202;16.274;2023-03-03T00:39:18;27.63;;;13.63;;
49123;SDS011;48506;48.202;16.274;2023-03-03T00:41:51;25.90;;;12.45;;
49123;SDS011;48506;48.202;16.274;2023-03-03T00:46:53;28.63;;;14.60;;
49123;SDS011;48506;48.202;16.274;2023-03-03T00:49:24;25.15;;;12.93;;
49123;SDS011;48506;48.202;16.274;2023-03-03T00:51:52;32.03;;;13.30;;
49123;SDS011;48506;48.202;16.274;2023-03-03T00:54:18;26.30;;;14.43;;
49123;SDS011;48506;48.202;16.274;2023-03-03T00:56:44;30.02;;;14.02;;
49123;SDS011;48506;48.202;16.274;2023-03-03T00:59:11;27.90;;;14.38;;
49123;SDS011;48506;48.202;16.274;2023-03-03T01:01:36;28.95;;;15.07;;
49123;SDS011;48506;48.202;16.274;2023-03-03T01:04:02;33.45;;;14.30;;
49123;SDS011;48506;48.202;16.274;2023-03-03T01:06:28;24.02;;;13.27;;
49123;SDS011;48506;48.202;16.274;2023-03-03T01:08:54;27.20;;;15.23;;
49123;SDS011;48506;48.202;16.274;2023-03-03T01:11:25;26.73;;;13.82;;
49123;SDS011;48506;48.202;16.274;2023-03-03T01:13:52;30.00;;;15.60;;
49123;SDS011;48506;48.202;16.274;2023-03-03T01:16:19;28.55;;;15.40;;
49123;SDS011;48506;48.202;16.274;2023-03-03T01:18:45;40.88;;;17.38;;
49123;SDS011;48506;48.202;16.274;2023-03-03T01:21:11;28.77;;;16.67;;
49123;SDS011;48506;48.202;16.274;2023-03-03T01:23:38;29.77;;;15.23;;
49123;SDS011;48506;48.202;16.274;2023-03-03T01:26:04;27.48;;;15.07;;
49123;SDS011;48506;48.202;16.274;2023-03-03T01:28:31;33.08;;;15.93;;
49123;SDS011;48506;48.202;16.274;2023-03-03T01:31:00;28.10;;;14.90;;
49123;SDS011;48506;48.202;16.274;2023-03-03T01:33:28;32.83;;;16.77;;
49123;SDS011;48506;48.202;16.274;2023-03-03T01:35:56;34.25;;;15.57;;
49123;SDS011;48506;48.202;16.274;2023-03-03T01:38:22;29.40;;;14.45;;
49123;SDS011;48506;48.202;16.274;2023-03-03T01:40:52;31.40;;;14.40;;
49123;SDS011;48506;48.202;16.274;2023-03-03T01:43:26;30.20;;;15.38;;
49123;SDS011;48506;48.202;16.274;2023-03-03T01:48:26;36.00;;;15.02;;
49123;SDS011;48506;48.202;16.274;2023-03-03T01:51:06;26.75;;;15.05;;
49123;SDS011;48506;48.202;16.274;2023-03-03T01:53:59;31.27;;;16.50;;
49123;SDS011;48506;48.202;16.274;2023-03-03T01:56:27;30.15;;;15.43;;
49123;SDS011;48506;48.202;16.274;2023-03-03T01:59:00;29.85;;;15.63;;
49123;SDS011;48506;48.202;16.274;2023-03-03T02:01:30;26.40;;;14.13;;
49123;SDS011;48506;48.202;16.274;2023-03-03T02:03:57;35.25;;;15.50;;
49123;SDS011;48506;48.202;16.274;2023-03-03T02:06:25;33.70;;;17.45;;
49123;SDS011;48506;48.202;16.274;2023-03-03T02:09:08;31.23;;;14.48;;
49123;SDS011;48506;48.202;16.274;2023-03-03T02:11:41;28.95;;;12.63;;
49123;SDS011;48506;48.202;16.274;2023-03-03T02:14:11;24.33;;;12.80;;
49123;SDS011;48506;48.202;16.274;2023-03-03T02:16:37;26.73;;;13.52;;
49123;SDS011;48506;48.202;16.274;2023-03-03T02:19:04;25.65;;;11.68;;
49123;SDS011;48506;48.202;16.274;2023-03-03T02:21:39;25.48;;;12.57;;
49123;SDS011;48506;48.202;16.274;2023-03-03T02:26:51;28.10;;;14.15;;
49123;SDS011;48506;48.202;16.274;2023-03-03T02:29:18;28.92;;;14.55;;
49123;SDS011;48506;48.202;16.274;2023-03-03T02:31:44;25.33;;;13.38;;
49123;SDS011;48506;48.202;16.274;2023-03-03T02:34:10;30.00;;;14.57;;
49123;SDS011;48506;48.202;16.274;2023-03-03T02:36:36;28.25;;;14.70;;
49123;SDS011;48506;48.202;16.274;2023-03-03T02:39:20;29.63;;;15.60;;
49123;SDS011;48506;48.202;16.274;2023-03-03T02:44:27;34.53;;;18.73;;
49123;SDS011;48506;48.202;16.274;2023-03-03T02:46:55;35.25;;;17.27;;
49123;SDS011;48506;48.202;16.274;2023-03-03T02:49:25;39.72;;;20.30;;
49123;SDS011;48506;48.202;16.274;2023-03-03T02:51:57;38.55;;;18.60;;
49123;SDS011;48506;48.202;16.274;2023-03-03T02:54:24;37.17;;;18.42;;
49123;SDS011;48506;48.202;16.274;2023-03-03T02:56:52;36.25;;;17.52;;
49123;SDS011;48506;48.202;16.274;2023-03-03T02:59:18;33.85;;;15.57;;
49123;SDS011;48506;48.202;16.274;2023-03-03T03:01:45;31.42;;;15.30;;
49123;SDS011;48506;48.202;16.274;2023-03-03T03:04:12;28.98;;;14.00;;
49123;SDS011;48506;48.202;16.274;2023-03-03T03:06:57;26.88;;;15.10;;
49123;SDS011;48506;48.202;16.274;2023-03-03T03:09:24;27.92;;;13.57;;
49123;SDS011;48506;48.202;16.274;2023-03-03T03:11:50;27.05;;;13.55;;
49123;SDS011;48506;48.202;16.274;2023-03-03T03:14:16;29.73;;;13.65;;
49123;SDS011;48506;48.202;16.274;2023-03-03T03:16:42;26.83;;;14.40;;
49123;SDS011;48506;48.202;16.274;2023-03-03T03:19:08;30.17;;;13.82;;
49123;SDS011;48506;48.202;16.274;2023-03-03T03:21:34;30.60;;;15.88;;
49123;SDS011;48506;48.202;16.274;2023-03-03T03:24:00;27.35;;;13.80;;
49123;SDS011;48506;48.202;16.274;2023-03-03T03:26:26;23.17;;;12.27;;
49123;SDS011;48506;48.202;16.274;2023-03-03T03:28:53;26.13;;;12.40;;
49123;SDS011;48506;48.202;16.274;2023-03-03T03:31:19;26.90;;;14.05;;
49123;SDS011;48506;48.202;16.274;2023-03-03T03:33:47;26.55;;;13.63;;
49123;SDS011;48506;48.202;16.274;2023-03-03T03:36:13;28.42;;;14.05;;
49123;SDS011;48506;48.202;16.274;2023-03-03T03:38:39;30.73;;;14.90;;
49123;SDS011;48506;48.202;16.274;2023-03-03T03:41:05;32.15;;;16.20;;
49123;SDS011;48506;48.202;16.274;2023-03-03T03:43:32;36.40;;;16.08;;
49123;SDS011;48506;48.202;16.274;2023-03-03T03:45:58;37.70;;;18.23;;
49123;SDS011;48506;48.202;16.274;2023-03-03T03:48:24;38.50;;;18.85;;
49123;SDS011;48506;48.202;16.274;2023-03-03T03:50:51;33.13;;;16.38;;
49123;SDS011;48506;48.202;16.274;2023-03-03T03:53:17;39.15;;;16.27;;
49123;SDS011;48506;48.202;16.274;2023-03-03T03:55:43;38.65;;;15.55;;
49123;SDS011;48506;48.202;16.274;2023-03-03T03:58:14;32.95;;;15.93;;
49123;SDS011;48506;48.202;16.274;2023-03-03T04:00:41;25.80;;;13.88;;
49123;SDS011;48506;48.202;16.274;2023-03-03T04:03:09;30.40;;;15.15;;
49123;SDS011;48506;48.202;16.274;2023-03-03T04:05:35;33.53;;;15.27;;
49123;SDS011;48506;48.202;16.274;2023-03-03T04:08:02;28.95;;;14.82;;
49123;SDS011;48506;48.202;16.274;2023-03-03T04:10:28;30.63;;;13.95;;
49123;SDS011;48506;48.202;16.274;2023-03-03T04:12:54;29.63;;;13.52;;
49123;SDS011;48506;48.202;16.274;2023-03-03T04:15:20;34.72;;;14.90;;
49123;SDS011;48506;48.202;16.274;2023-03-03T04:17:46;34.45;;;17.05;;
49123;SDS011;48506;48.202;16.274;2023-03-03T04:20:13;30.08;;;15.05;;
49123;SDS011;48506;48.202;16.274;2023-03-03T04:22:40;38.33;;;17.92;;
49123;SDS011;48506;48.202;16.274;2023-03-03T04:25:08;34.67;;;16.75;;
49123;SDS011;48506;48.202;16.274;2023-03-03T04:27:38;35.38;;;17.95;;
49123;SDS011;48506;48.202;16.274;2023-03-03T04:30:04;37.55;;;16.90;;
49123;SDS011;48506;48.202;16.274;2023-03-03T04:32:31;37.80;;;17.30;;
49123;SDS011;48506;48.202;16.274;2023-03-03T04:35:00;25.40;;;13.40;;
49123;SDS011;48506;48.202;16.274;2023-03-03T04:37:27;38.40;;;17.23;;
49123;SDS011;48506;48.202;16.274;2023-03-03T04:39:52;33.25;;;15.75;;
49123;SDS011;48506;48.202;16.274;2023-03-03T04:42:18;35.55;;;14.40;;
49123;SDS011;48506;48.202;16.274;2023-03-03T04:44:44;33.25;;;15.98;;
49123;SDS011;48506;48.202;16.274;2023-03-03T04:47:10;28.45;;;13.48;;
49123;SDS011;48506;48.202;16.274;2023-03-03T04:49:36;28.23;;;14.02;;
49123;SDS011;48506;48.202;16.274;2023-03-03T04:52:02;27.55;;;13.82;;
49123;SDS011;48506;48.202;16.274;2023-03-03T04:54:29;37.58;;;15.23;;
49123;SDS011;48506;48.202;16.274;2023-03-03T04:56:55;30.05;;;14.68;;
49123;SDS011;48506;48.202;16.274;2023-03-03T04:59:22;32.88;;;14.73;;
49123;SDS011;48506;48.202;16.274;2023-03-03T05:01:48;31.33;;;16.58;;
49123;SDS011;48506;48.202;16.274;2023-03-03T05:04:15;43.22;;;17.65;;
49123;SDS011;48506;48.202;16.274;2023-03-03T05:06:44;26.08;;;12.60;;
49123;SDS011;48506;48.202;16.274;2023-03-03T05:09:10;37.70;;;17.10;;
49123;SDS011;48506;48.202;16.274;2023-03-03T05:11:36;40.67;;;17.38;;
49123;SDS011;48506;48.202;16.274;2023-03-03T05:14:03;41.17;;;18.55;;
49123;SDS011;48506;48.202;16.274;2023-03-03T05:16:28;35.50;;;17.30;;
49123;SDS011;48506;48.202;16.274;2023-03-03T05:18:54;41.05;;;16.95;;
49123;SDS011;48506;48.202;16.274;2023-03-03T05:21:21;42.17;;;18.83;;
49123;SDS011;48506;48.202;16.274;2023-03-03T05:23:47;31.20;;;15.55;;
49123;SDS011;48506;48.202;16.274;2023-03-03T05:26:12;44.45;;;19.88;;
49123;SDS011;48506;48.202;16.274;2023-03-03T05:28:39;50.17;;;22.63;;
49123;SDS011;48506;48.202;16.274;2023-03-03T05:31:05;51.38;;;23.30;;
49123;SDS011;48506;48.202;16.274;2023-03-03T05:33:30;44.33;;;20.85;;
49123;SDS011;48506;48.202;16.274;2023-03-03T05:35:56;45.30;;;22.70;;
49123;SDS011;48506;48.202;16.274;2023-03-03T05:38:23;51.53;;;24.08;;
49123;SDS011;48506;48.202;16.274;2023-03-03T05:40:50;47.70;;;23.40;;
49123;SDS011;48506;48.202;16.274;2023-03-03T05:43:16;50.85;;;24.23;;
49123;SDS011;48506;48.202;16.274;2023-03-03T05:45:42;53.83;;;25.27;;
49123;SDS011;48506;48.202;16.274;2023-03-03T05:48:08;52.60;;;27.02;;
49123;SDS011;48506;48.202;16.274;2023-03-03T05:50:35;55.00;;;26.40;;
49123;SDS011;48506;48.202;16.274;2023-03-03T05:53:02;53.55;;;26.42;;
49123;SDS011;48506;48.202;16.274;2023-03-03T05:55:28;61.42;;;28.33;;
49123;SDS011;48506;48.202;16.274;2023-03-03T05:57:54;55.47;;;29.17;;
49123;SDS011;48506;48.202;16.274;2023-03-03T06:00:20;61.08;;;29.65;;
49123;SDS011;48506;48.202;16.274;2023-03-03T06:02:46;66.95;;;31.05;;
49123;SDS011;48506;48.202;16.274;2023-03-03T06:05:13;64.38;;;29.83;;
49123;SDS011;48506;48.202;16.274;2023-03-03T06:07:39;64.63;;;30.92;;
49123;SDS011;48506;48.202;16.274;2023-03-03T06:10:05;68.47;;;34.92;;
49123;SDS011;48506;48.202;16.274;2023-03-03T06:12:31;68.97;;;31.98;;
49123;SDS011;48506;48.202;16.274;2023-03-03T06:14:57;69.63;;;31.38;;
49123;SDS011;48506;48.202;16.274;2023-03-03T06:17:23;70.25;;;32.08;;
49123;SDS011;48506;48.202;16.274;2023-03-03T06:19:49;72.40;;;32.70;;
49123;SDS011;48506;48.202;16.274;2023-03-03T06:22:15;68.22;;;33.83;;
49123;SDS011;48506;48.202;16.274;2023-03-03T06:24:41;78.47;;;35.88;;
49123;SDS011;48506;48.202;16.274;2023-03-03T06:27:08;75.57;;;36.55;;
49123;SDS011;48506;48.202;16.274;2023-03-03T06:29:34;72.18;;;34.97;;
49123;SDS011;48506;48.202;16.274;2023-03-03T06:32:00;72.97;;;36.05;;
49123;SDS011;48506;48.202;16.274;2023-03-03T06:34:26;80.30;;;36.58;;
49123;SDS011;48506;48.202;16.274;2023-03-03T06:36:52;74.82;;;37.50;;
49123;SDS011;48506;48.202;16.274;2023-03-03T06:39:19;72.03;;;35.50;;
49123;SDS011;48506;48.202;16.274;2023-03-03T06:41:45;77.50;;;35.78;;
49123;SDS011;48506;48.202;16.274;2023-03-03T06:44:11;81.28;;;36.25;;
49123;SDS011;48506;48.202;16.274;2023-03-03T06:46:37;82.88;;;38.85;;
49123;SDS011;48506;48.202;16.274;2023-03-03T06:49:03;75.63;;;37.50;;
49123;SDS011;48506;48.202;16.274;2023-03-03T06:51:30;75.20;;;36.63;;
49123;SDS011;48506;48.202;16.274;2023-03-03T06:54:05;77.80;;;36.87;;
49123;SDS011;48506;48.202;16.274;2023-03-03T06:56:41;77.10;;;37.78;;
49123;SDS011;48506;48.202;16.274;2023-03-03T06:59:13;68.20;;;36.10;;
49123;SDS011;48506;48.202;16.274;2023-03-03T07:01:40;75.32;;;36.40;;
49123;SDS011;48506;48.202;16.274;2023-03-03T07:04:27;77.13;;;40.35;;
49123;SDS011;48506;48.202;16.274;2023-03-03T07:07:37;84.82;;;39.20;;
49123;SDS011;48506;48.202;16.274;2023-03-03T07:09:48;82.03;;;38.80;;
49123;SDS011;48506;48.202;16.274;2023-03-03T07:12:20;84.07;;;40.20;;
49123;SDS011;48506;48.202;16.274;2023-03-03T07:14:52;81.05;;;40.00;;
49123;SDS011;48506;48.202;16.274;2023-03-03T07:17:27;80.97;;;37.58;;
49123;SDS011;48506;48.202;16.274;2023-03-03T07:19:54;75.53;;;35.97;;
49123;SDS011;48506;48.202;16.274;2023-03-03T07:22:24;74.70;;;37.05;;
49123;SDS011;48506;48.202;16.274;2023-03-03T07:24:53;73.00;;;37.45;;
49123;SDS011;48506;48.202;16.274;2023-03-03T07:27:25;78.70;;;36.57;;
49123;SDS011;48506;48.202;16.274;2023-03-03T07:29:54;75.53;;;36.45;;
49123;SDS011;48506;48.202;16.274;2023-03-03T07:37:58;76.85;;;35.28;;
49123;SDS011;48506;48.202;16.274;2023-03-03T07:43:00;74.60;;;36.47;;
49123;SDS011;48506;48.202;16.274;2023-03-03T07:45:45;71.07;;;35.40;;
49123;SDS011;48506;48.202;16.274;2023-03-03T07:50:38;67.93;;;34.58;;
49123;SDS011;48506;48.202;16.274;2023-03-03T07:53:10;59.22;;;33.30;;
49123;SDS011;48506;48.202;16.274;2023-03-03T07:55:46;62.70;;;32.00;;
49123;SDS011;48506;48.202;16.274;2023-03-03T08:03:17;70.25;;;31.83;;
49123;SDS011;48506;48.202;16.274;2023-03-03T08:05:47;65.90;;;31.80;;
49123;SDS011;48506;48.202;16.274;2023-03-03T08:10:57;64.20;;;32.03;;
49123;SDS011;48506;48.202;16.274;2023-03-03T08:13:28;66.57;;;31.70;;
49123;SDS011;48506;48.202;16.274;2023-03-03T08:21:02;59.25;;;30.20;;
49123;SDS011;48506;48.202;16.274;2023-03-03T08:23:37;59.53;;;29.77;;
49123;SDS011;48506;48.202;16.274;2023-03-03T08:26:03;62.78;;;32.88;;
49123;SDS011;48506;48.202;16.274;2023-03-03T08:28:29;61.45;;;30.13;;
49123;SDS011;48506;48.202;16.274;2023-03-03T08:30:55;55.60;;;30.80;;
49123;SDS011;48506;48.202;16.274;2023-03-03T08:33:21;66.47;;;31.30;;
49123;SDS011;48506;48.202;16.274;2023-03-03T08:35:47;57.78;;;30.17;;
49123;SDS011;48506;48.202;16.274;2023-03-03T08:38:16;62.30;;;30.23;;
49123;SDS011;48506;48.202;16.274;2023-03-03T08:40:43;58.67;;;29.02;;
49123;SDS011;48506;48.202;16.274;2023-03-03T08:43:09;57.67;;;28.27;;
49123;SDS011;48506;48.202;16.274;2023-03-03T08:45:44;68.03;;;31.73;;
49123;SDS011;48506;48.202;16.274;2023-03-03T08:50:37;59.60;;;29.92;;
49123;SDS011;48506;48.202;16.274;2023-03-03T08:53:04;54.58;;;27.38;;
49123;SDS011;48506;48.202;16.274;2023-03-03T08:55:31;58.33;;;30.08;;
49123;SDS011;48506;48.202;16.274;2023-03-03T08:57:57;56.92;;;29.90;;
49123;SDS011;48506;48.202;16.274;2023-03-03T09:00:23;56.28;;;28.75;;
49123;SDS011;48506;48.202;16.274;2023-03-03T09:02:51;56.95;;;30.00;;
49123;SDS011;48506;48.202;16.274;2023-03-03T09:05:18;54.83;;;29.05;;
49123;SDS011;48506;48.202;16.274;2023-03-03T09:07:45;56.28;;;28.48;;
49123;SDS011;48506;48.202;16.274;2023-03-03T09:10:13;49.65;;;27.15;;
49123;SDS011;48506;48.202;16.274;2023-03-03T09:12:42;46.67;;;22.10;;
49123;SDS011;48506;48.202;16.274;2023-03-03T09:15:17;59.22;;;31.45;;
49123;SDS011;48506;48.202;16.274;2023-03-03T09:17:45;52.50;;;28.50;;
49123;SDS011;48506;48.202;16.274;2023-03-03T09:20:32;51.83;;;28.25;;
49123;SDS011;48506;48.202;16.274;2023-03-03T09:28:55;52.50;;;28.75;;
49123;SDS011;48506;48.202;16.274;2023-03-03T09:36:47;52.45;;;28.42;;
49123;SDS011;48506;48.202;16.274;2023-03-03T09:39:16;56.17;;;29.40;;
49123;SDS011;48506;48.202;16.274;2023-03-03T09:47:46;52.45;;;29.35;;
49123;SDS011;48506;48.202;16.274;2023-03-03T09:55:55;54.20;;;29.73;;
49123;SDS011;48506;48.202;16.274;2023-03-03T10:01:05;53.40;;;28.00;;
49123;SDS011;48506;48.202;16.274;2023-03-03T10:03:58;41.00;;;21.95;;
49123;SDS011;48506;48.202;16.274;2023-03-03T10:15:07;51.13;;;28.00;;
49123;SDS011;48506;48.202;16.274;2023-03-03T10:20:56;50.90;;;29.95;;
49123;SDS011;48506;48.202;16.274;2023-03-03T10:29:21;55.50;;;28.60;;
49123;SDS011;48506;48.202;16.274;2023-03-03T10:55:38;52.22;;;27.60;;
49123;SDS011;48506;48.202;16.274;2023-03-03T11:04:00;43.45;;;23.30;;
49123;SDS011;48506;48.202;16.274;2023-03-03T11:12:07;32.95;;;19.00;;
49123;SDS011;48506;48.202;16.274;2023-03-03T11:15:06;34.53;;;21.30;;
49123;SDS011;48506;48.202;16.274;2023-03-03T11:26:07;43.95;;;24.30;;
49123;SDS011;48506;48.202;16.274;2023-03-03T11:37:08;38.92;;;23.48;;
49123;SDS011;48506;48.202;16.274;2023-03-03T11:40:08;41.70;;;22.98;;
49123;SDS011;48506;48.202;16.274;2023-03-03T11:45:36;37.90;;;22.40;;
49123;SDS011;48506;48.202;16.274;2023-03-03T11:50:51;40.20;;;23.02;;
49123;SDS011;48506;48.202;16.274;2023-03-03T11:53:41;35.95;;;21.35;;
49123;SDS011;48506;48.202;16.274;2023-03-03T11:59:04;34.28;;;20.42;;
49123;SDS011;48506;48.202;16.274;2023-03-03T12:01:41;38.08;;;20.88;;
49123;SDS011;48506;48.202;16.274;2023-03-03T12:04:36;35.88;;;21.27;;
49123;SDS011;48506;48.202;16.274;2023-03-03T12:10:06;36.08;;;19.88;;
49123;SDS011;48506;48.202;16.274;2023-03-03T12:12:43;40.00;;;25.10;;
49123;SDS011;48506;48.202;16.274;2023-03-03T12:26:02;37.50;;;22.20;;
49123;SDS011;48506;48.202;16.274;2023-03-03T12:28:41;33.35;;;19.77;;
49123;SDS011;48506;48.202;16.274;2023-03-03T12:34:32;36.40;;;23.13;;
49123;SDS011;48506;48.202;16.274;2023-03-03T12:37:26;29.02;;;16.42;;
49123;SDS011;48506;48.202;16.274;2023-03-03T12:40:07;38.40;;;21.50;;
49123;SDS011;48506;48.202;16.274;2023-03-03T12:47:58;29.55;;;17.98;;
49123;SDS011;48506;48.202;16.274;2023-03-03T12:53:27;31.02;;;18.77;;
49123;SDS011;48506;48.202;16.274;2023-03-03T12:56:09;34.17;;;20.92;;
49123;SDS011;48506;48.202;16.274;2023-03-03T13:04:27;40.50;;;20.63;;
49123;SDS011;48506;48.202;16.274;2023-03-03T13:17:34;30.77;;;20.83;;
49123;SDS011;48506;48.202;16.274;2023-03-03T13:22:53;35.70;;;19.92;;
49123;SDS011;48506;48.202;16.274;2023-03-03T13:25:33;34.97;;;22.67;;
49123;SDS011;48506;48.202;16.274;2023-03-03T13:28:29;34.20;;;22.95;;
49123;SDS011;48506;48.202;16.274;2023-03-03T13:31:05;35.03;;;21.77;;
49123;SDS011;48506;48.202;16.274;2023-03-03T13:33:42;34.50;;;23.10;;
49123;SDS011;48506;48.202;16.274;2023-03-03T13:36:15;32.90;;;21.38;;
49123;SDS011;48506;48.202;16.274;2023-03-03T13:38:46;37.72;;;21.92;;
49123;SDS011;48506;48.202;16.274;2023-03-03T13:43:45;32.00;;;19.35;;
49123;SDS011;48506;48.202;16.274;2023-03-03T13:46:39;35.75;;;20.77;;
49123;SDS011;48506;48.202;16.274;2023-03-03T13:52:01;32.33;;;22.35;;
49123;SDS011;48506;48.202;16.274;2023-03-03T14:05:48;35.15;;;21.35;;
49123;SDS011;48506;48.202;16.274;2023-03-03T14:08:30;35.03;;;21.83;;
49123;SDS011;48506;48.202;16.274;2023-03-03T14:11:09;31.77;;;20.08;;
49123;SDS011;48506;48.202;16.274;2023-03-03T14:21:54;35.42;;;21.25;;
49123;SDS011;48506;48.202;16.274;2023-03-03T14:24:30;29.42;;;19.40;;
49123;SDS011;48506;48.202;16.274;2023-03-03T14:27:23;35.25;;;20.15;;
49123;SDS011;48506;48.202;16.274;2023-03-03T14:29:51;35.17;;;20.63;;
49123;SDS011;48506;48.202;16.274;2023-03-03T14:32:20;29.38;;;19.83;;
49123;SDS011;48506;48.202;16.274;2023-03-03T14:34:56;33.60;;;19.85;;
49123;SDS011;48506;48.202;16.274;2023-03-03T14:37:41;30.35;;;19.83;;
49123;SDS011;48506;48.202;16.274;2023-03-03T14:45:20;30.33;;;19.83;;
49123;SDS011;48506;48.202;16.274;2023-03-03T14:47:56;31.63;;;19.20;;
49123;SDS011;48506;48.202;16.274;2023-03-03T14:50:43;31.58;;;20.45;;
49123;SDS011;48506;48.202;16.274;2023-03-03T14:55:43;29.88;;;18.60;;
49123;SDS011;48506;48.202;16.274;2023-03-03T14:58:28;30.55;;;19.35;;
49123;SDS011;48506;48.202;16.274;2023-03-03T15:01:11;29.83;;;19.50;;
49123;SDS011;48506;48.202;16.274;2023-03-03T15:03:59;27.73;;;19.15;;
49123;SDS011;48506;48.202;16.274;2023-03-03T15:06:28;27.98;;;18.70;;
49123;SDS011;48506;48.202;16.274;2023-03-03T15:09:18;27.45;;;17.17;;
49123;SDS011;48506;48.202;16.274;2023-03-03T15:12:16;28.75;;;17.13;;
49123;SDS011;48506;48.202;16.274;2023-03-03T15:17:39;28.77;;;16.23;;
49123;SDS011;48506;48.202;16.274;2023-03-03T15:34:01;22.05;;;14.70;;
49123;SDS011;48506;48.202;16.274;2023-03-03T15:39:49;25.92;;;14.23;;
49123;SDS011;48506;48.202;16.274;2023-03-03T15:50:39;22.00;;;12.85;;
49123;SDS011;48506;48.202;16.274;2023-03-03T15:53:31;22.48;;;13.25;;
49123;SDS011;48506;48.202;16.274;2023-03-03T15:56:32;22.73;;;13.38;;
49123;SDS011;48506;48.202;16.274;2023-03-03T16:02:19;22.65;;;13.80;;
49123;SDS011;48506;48.202;16.274;2023-03-03T16:04:52;18.30;;;12.63;;
49123;SDS011;48506;48.202;16.274;2023-03-03T16:13:15;20.98;;;12.25;;
49123;SDS011;48506;48.202;16.274;2023-03-03T16:21:20;25.55;;;13.77;;
49123;SDS011;48506;48.202;16.274;2023-03-03T16:23:54;23.80;;;13.43;;
49123;SDS011;48506;48.202;16.274;2023-03-03T16:26:31;23.75;;;12.88;;
49123;SDS011;48506;48.202;16.274;2023-03-03T16:29:17;21.10;;;12.05;;
49123;SDS011;48506;48.202;16.274;2023-03-03T16:34:41;23.17;;;14.32;;
49123;SDS011;48506;48.202;16.274;2023-03-03T16:37:21;23.85;;;14.13;;
49123;SDS011;48506;48.202;16.274;2023-03-03T16:39:54;24.13;;;14.20;;
49123;SDS011;48506;48.202;16.274;2023-03-03T16:42:48;26.67;;;15.23;;
49123;SDS011;48506;48.202;16.274;2023-03-03T16:45:27;22.38;;;12.55;;
49123;SDS011;48506;48.202;16.274;2023-03-03T16:48:02;22.38;;;13.93;;
49123;SDS011;48506;48.202;16.274;2023-03-03T16:50:54;25.52;;;13.32;;
49123;SDS011;48506;48.202;16.274;2023-03-03T17:04:14;28.17;;;14.23;;
49123;SDS011;48506;48.202;16.274;2023-03-03T17:06:51;27.88;;;13.15;;
49123;SDS011;48506;48.202;16.274;2023-03-03T17:12:17;25.08;;;14.38;;
49123;SDS011;48506;48.202;16.274;2023-03-03T17:15:00;25.70;;;13.35;;
49123;SDS011;48506;48.202;16.274;2023-03-03T17:17:40;24.52;;;13.55;;
49123;SDS011;48506;48.202;16.274;2023-03-03T17:20:28;25.40;;;12.95;;
49123;SDS011;48506;48.202;16.274;2023-03-03T17:26:03;25.55;;;15.57;;
49123;SDS011;48506;48.202;16.274;2023-03-03T17:29:23;29.27;;;15.70;;
49123;SDS011;48506;48.202;16.274;2023-03-03T17:31:42;29.08;;;15.38;;
49123;SDS011;48506;48.202;16.274;2023-03-03T17:44:56;28.10;;;14.18;;
49123;SDS011;48506;48.202;16.274;2023-03-03T17:51:04;31.55;;;14.52;;
49123;SDS011;48506;48.202;16.274;2023-03-03T17:56:26;26.02;;;14.73;;
49123;SDS011;48506;48.202;16.274;2023-03-03T18:05:18;28.13;;;15.32;;
49123;SDS011;48506;48.202;16.274;2023-03-03T18:11:01;27.60;;;14.90;;
49123;SDS011;48506;48.202;16.274;2023-03-03T18:16:29;25.60;;;14.88;;
49123;SDS011;48506;48.202;16.274;2023-03-03T18:19:39;32.85;;;16.35;;
49123;SDS011;48506;48.202;16.274;2023-03-03T18:22:40;25.65;;;14.70;;
49123;SDS011;48506;48.202;16.274;2023-03-03T18:25:08;30.48;;;14.65;;
49123;SDS011;48506;48.202;16.274;2023-03-03T18:27:45;27.77;;;14.82;;
49123;SDS011;48506;48.202;16.274;2023-03-03T18:33:43;30.48;;;16.13;;
49123;SDS011;48506;48.202;16.274;2023-03-03T18:38:54;29.77;;;15.32;;
49123;SDS011;48506;48.202;16.274;2023-03-03T18:41:24;27.67;;;15.52;;
49123;SDS011;48506;48.202;16.274;2023-03-03T18:43:58;26.05;;;15.48;;
49123;SDS011;48506;48.202;16.274;2023-03-03T18:56:43;35.40;;;18.92;;
49123;SDS011;48506;48.202;16.274;2023-03-03T19:08:16;39.80;;;18.85;;
49123;SDS011;48506;48.202;16.274;2023-03-03T19:16:27;40.83;;;19.48;;
49123;SDS011;48506;48.202;16.274;2023-03-03T19:18:57;43.05;;;22.05;;
49123;SDS011;48506;48.202;16.274;2023-03-03T19:21:33;34.63;;;18.50;;
49123;SDS011;48506;48.202;16.274;2023-03-03T19:24:03;40.22;;;20.75;;
49123;SDS011;48506;48.202;16.274;2023-03-03T19:32:17;38.38;;;18.77;;
49123;SDS011;48506;48.202;16.274;2023-03-03T19:35:02;38.67;;;19.95;;
49123;SDS011;48506;48.202;16.274;2023-03-03T19:40:44;42.20;;;20.00;;
49123;SDS011;48506;48.202;16.274;2023-03-03T19:43:37;39.03;;;20.40;;
49123;SDS011;48506;48.202;16.274;2023-03-03T19:48:50;47.67;;;23.13;;
49123;SDS011;48506;48.202;16.274;2023-03-03T19:52:02;40.13;;;20.42;;
49123;SDS011;48506;48.202;16.274;2023-03-03T19:57:10;41.13;;;20.30;;
49123;SDS011;48506;48.202;16.274;2023-03-03T19:59:57;44.97;;;21.48;;
49123;SDS011;48506;48.202;16.274;2023-03-03T20:02:39;42.47;;;21.42;;
49123;SDS011;48506;48.202;16.274;2023-03-03T20:08:04;39.45;;;20.55;;
49123;SDS011;48506;48.202;16.274;2023-03-03T20:11:29;49.63;;;23.25;;
49123;SDS011;48506;48.202;16.274;2023-03-03T20:13:57;46.55;;;23.35;;
49123;SDS011;48506;48.202;16.274;2023-03-03T20:16:36;46.65;;;22.52;;
49123;SDS011;48506;48.202;16.274;2023-03-03T20:19:09;44.13;;;21.05;;
49123;SDS011;48506;48.202;16.274;2023-03-03T20:33:32;42.55;;;20.00;;
49123;SDS011;48506;48.202;16.274;2023-03-03T20:46:54;43.58;;;20.52;;
49123;SDS011;48506;48.202;16.274;2023-03-03T20:52:32;45.47;;;21.17;;
49123;SDS011;48506;48.202;16.274;2023-03-03T20:58:14;50.50;;;23.65;;
49123;SDS011;48506;48.202;16.274;2023-03-03T21:00:51;49.22;;;21.60;;
49123;SDS011;48506;48.202;16.274;2023-03-03T21:03:32;46.20;;;21.65;;
49123;SDS011;48506;48.202;16.274;2023-03-03T21:06:10;43.25;;;21.42;;
49123;SDS011;48506;48.202;16.274;2023-03-03T21:08:54;38.65;;;20.45;;